sensor_id;sensor_type;location;lat;lon;timestamp;pressure;altitude;pressure_sealevel;temperature;humidity
77869;BME280;67231;59.144;37.934;2023-04-25T00:00:34;99834.75;;;11.29;46.61
77869;BME280;67231;59.144;37.934;2023-04-25T00:03:00;99833.75;;;11.22;46.89
77869;BME280;67231;59.144;37.934;2023-04-25T00:05:26;99833.03;;;11.12;47.22
77869;BME280;67231;59.144;37.934;2023-04-25T00:07:53;99832.03;;;11.05;47.46
77869;BME280;67231;59.144;37.934;2023-04-25T00:10:20;99837.31;;;10.97;47.68
77869;BME280;67231;59.144;37.934;2023-04-25T00:12:46;99842.09;;;10.93;48.14
77869;BME280;67231;59.144;37.934;2023-04-25T00:15:13;99834.31;;;10.91;48.36
77869;BME280;67231;59.144;37.934;2023-04-25T00:17:40;99842.59;;;10.88;48.56
77869;BME280;67231;59.144;37.934;2023-04-25T00:20:07;99838.72;;;10.83;48.80
77869;BME280;67231;59.144;37.934;2023-04-25T00:22:36;99842.31;;;10.73;48.82
77869;BME280;67231;59.144;37.934;2023-04-25T00:25:06;99844.78;;;10.67;49.16
77869;BME280;67231;59.144;37.934;2023-04-25T00:27:33;99843.75;;;10.60;48.92
77869;BME280;67231;59.144;37.934;2023-04-25T00:29:59;99842.69;;;10.52;49.59
77869;BME280;67231;59.144;37.934;2023-04-25T00:32:26;99848.63;;;10.46;50.14
77869;BME280;67231;59.144;37.934;2023-04-25T00:34:52;99846.22;;;10.35;50.04
77869;BME280;67231;59.144;37.934;2023-04-25T00:37:18;99839.88;;;10.28;50.39
77869;BME280;67231;59.144;37.934;2023-04-25T00:39:45;99844.81;;;10.23;50.89
77869;BME280;67231;59.144;37.934;2023-04-25T00:42:12;99844.41;;;10.17;51.06
77869;BME280;67231;59.144;37.934;2023-04-25T00:44:38;99850.00;;;10.14;51.43
77869;BME280;67231;59.144;37.934;2023-04-25T00:47:06;99846.69;;;10.12;51.13
77869;BME280;67231;59.144;37.934;2023-04-25T00:49:32;99844.50;;;10.08;51.66
77869;BME280;67231;59.144;37.934;2023-04-25T00:51:59;99838.69;;;10.04;51.99
77869;BME280;67231;59.144;37.934;2023-04-25T00:54:25;99845.97;;;10.02;51.82
77869;BME280;67231;59.144;37.934;2023-04-25T00:56:52;99845.44;;;9.98;52.13
77869;BME280;67231;59.144;37.934;2023-04-25T00:59:19;99843.53;;;9.91;52.85
77869;BME280;67231;59.144;37.934;2023-04-25T01:01:46;99844.81;;;9.87;52.66
77869;BME280;67231;59.144;37.934;2023-04-25T01:04:13;99854.00;;;9.92;51.47
77869;BME280;67231;59.144;37.934;2023-04-25T01:06:40;99846.94;;;10.01;51.40
77869;BME280;67231;59.144;37.934;2023-04-25T01:09:06;99842.56;;;10.10;51.15
77869;BME280;67231;59.144;37.934;2023-04-25T01:11:33;99857.66;;;10.17;50.50
77869;BME280;67231;59.144;37.934;2023-04-25T01:13:59;99854.72;;;10.20;50.42
77869;BME280;67231;59.144;37.934;2023-04-25T01:16:27;99853.59;;;10.23;50.59
77869;BME280;67231;59.144;37.934;2023-04-25T01:18:54;99841.44;;;10.20;49.99
77869;BME280;67231;59.144;37.934;2023-04-25T01:21:20;99847.75;;;10.19;50.41
77869;BME280;67231;59.144;37.934;2023-04-25T01:23:47;99853.06;;;10.19;49.97
77869;BME280;67231;59.144;37.934;2023-04-25T01:26:14;99845.94;;;10.20;49.49
77869;BME280;67231;59.144;37.934;2023-04-25T01:28:42;99859.72;;;10.24;50.28
77869;BME280;67231;59.144;37.934;2023-04-25T01:31:09;99860.88;;;10.21;49.75
77869;BME280;67231;59.144;37.934;2023-04-25T01:33:38;99854.84;;;10.19;50.30
77869;BME280;67231;59.144;37.934;2023-04-25T01:36:04;99861.16;;;10.18;50.46
77869;BME280;67231;59.144;37.934;2023-04-25T01:38:31;99860.00;;;10.20;49.81
77869;BME280;67231;59.144;37.934;2023-04-25T01:40:58;99861.69;;;10.21;50.67
77869;BME280;67231;59.144;37.934;2023-04-25T01:43:25;99857.75;;;10.26;50.58
77869;BME280;67231;59.144;37.934;2023-04-25T01:45:52;99853.78;;;10.30;49.98
77869;BME280;67231;59.144;37.934;2023-04-25T01:48:19;99853.22;;;10.36;49.52
77869;BME280;67231;59.144;37.934;2023-04-25T01:50:46;99853.56;;;10.41;49.73
77869;BME280;67231;59.144;37.934;2023-04-25T01:53:13;99855.59;;;10.47;49.01
77869;BME280;67231;59.144;37.934;2023-04-25T01:55:42;99862.28;;;10.51;49.25
77869;BME280;67231;59.144;37.934;2023-04-25T01:58:12;99858.63;;;10.52;49.75
77869;BME280;67231;59.144;37.934;2023-04-25T02:00:59;99859.94;;;10.48;50.11
77869;BME280;67231;59.144;37.934;2023-04-25T02:03:31;99857.59;;;10.45;50.53
77869;BME280;67231;59.144;37.934;2023-04-25T02:05:58;99865.41;;;10.47;50.22
77869;BME280;67231;59.144;37.934;2023-04-25T02:08:25;99862.28;;;10.51;51.09
77869;BME280;67231;59.144;37.934;2023-04-25T02:10:54;99867.59;;;10.51;50.10
77869;BME280;67231;59.144;37.934;2023-04-25T02:13:22;99859.97;;;10.56;50.35
77869;BME280;67231;59.144;37.934;2023-04-25T02:16:03;99859.56;;;10.69;49.49
77869;BME280;67231;59.144;37.934;2023-04-25T02:18:29;99863.75;;;10.80;49.53
77869;BME280;67231;59.144;37.934;2023-04-25T02:21:00;99864.81;;;10.87;49.04
77869;BME280;67231;59.144;37.934;2023-04-25T02:23:28;99866.81;;;10.93;49.46
77869;BME280;67231;59.144;37.934;2023-04-25T02:25:56;99877.81;;;10.99;49.13
77869;BME280;67231;59.144;37.934;2023-04-25T02:28:24;99869.69;;;11.00;49.22
77869;BME280;67231;59.144;37.934;2023-04-25T02:30:52;99870.34;;;11.02;48.79
77869;BME280;67231;59.144;37.934;2023-04-25T02:33:18;99884.47;;;11.03;50.05
77869;BME280;67231;59.144;37.934;2023-04-25T02:35:44;99881.97;;;11.01;50.21
77869;BME280;67231;59.144;37.934;2023-04-25T02:38:10;99882.63;;;11.03;49.70
77869;BME280;67231;59.144;37.934;2023-04-25T02:40:37;99869.53;;;11.02;49.77
77869;BME280;67231;59.144;37.934;2023-04-25T02:43:03;99879.81;;;11.05;49.60
77869;BME280;67231;59.144;37.934;2023-04-25T02:45:29;99880.34;;;11.08;48.82
77869;BME280;67231;59.144;37.934;2023-04-25T02:47:56;99884.19;;;11.14;49.00
77869;BME280;67231;59.144;37.934;2023-04-25T02:50:22;99878.22;;;11.20;48.81
77869;BME280;67231;59.144;37.934;2023-04-25T02:52:48;99876.91;;;11.24;48.72
77869;BME280;67231;59.144;37.934;2023-04-25T02:55:19;99879.09;;;11.29;48.52
77869;BME280;67231;59.144;37.934;2023-04-25T02:57:47;99876.94;;;11.33;48.97
77869;BME280;67231;59.144;37.934;2023-04-25T03:00:20;99875.63;;;11.37;47.98
77869;BME280;67231;59.144;37.934;2023-04-25T03:02:46;99875.16;;;11.41;48.36
77869;BME280;67231;59.144;37.934;2023-04-25T03:05:12;99871.16;;;11.45;48.81
77869;BME280;67231;59.144;37.934;2023-04-25T03:07:41;99884.28;;;11.47;48.54
77869;BME280;67231;59.144;37.934;2023-04-25T03:10:10;99877.69;;;11.51;48.59
77869;BME280;67231;59.144;37.934;2023-04-25T03:12:37;99877.19;;;11.56;47.39
77869;BME280;67231;59.144;37.934;2023-04-25T03:15:04;99883.00;;;11.59;47.85
77869;BME280;67231;59.144;37.934;2023-04-25T03:17:32;99890.34;;;11.65;47.94
77869;BME280;67231;59.144;37.934;2023-04-25T03:19:59;99884.34;;;11.72;47.41
77869;BME280;67231;59.144;37.934;2023-04-25T03:22:26;99884.72;;;11.77;47.53
77869;BME280;67231;59.144;37.934;2023-04-25T03:24:52;99886.19;;;11.79;48.17
77869;BME280;67231;59.144;37.934;2023-04-25T03:27:19;99882.41;;;11.82;47.63
77869;BME280;67231;59.144;37.934;2023-04-25T03:29:46;99887.38;;;11.85;47.68
77869;BME280;67231;59.144;37.934;2023-04-25T03:32:12;99889.88;;;11.87;48.09
77869;BME280;67231;59.144;37.934;2023-04-25T03:34:39;99887.72;;;11.90;47.60
77869;BME280;67231;59.144;37.934;2023-04-25T03:37:06;99890.25;;;11.92;47.06
77869;BME280;67231;59.144;37.934;2023-04-25T03:39:36;99892.59;;;11.95;47.79
77869;BME280;67231;59.144;37.934;2023-04-25T03:42:03;99887.59;;;11.92;47.71
77869;BME280;67231;59.144;37.934;2023-04-25T03:44:29;99893.72;;;11.92;47.82
77869;BME280;67231;59.144;37.934;2023-04-25T03:46:56;99899.75;;;11.94;47.94
77869;BME280;67231;59.144;37.934;2023-04-25T03:49:24;99893.56;;;11.94;47.45
77869;BME280;67231;59.144;37.934;2023-04-25T03:52:02;99907.38;;;11.97;47.35
77869;BME280;67231;59.144;37.934;2023-04-25T03:54:33;99894.44;;;12.02;47.07
77869;BME280;67231;59.144;37.934;2023-04-25T03:57:19;99895.75;;;12.07;47.03
77869;BME280;67231;59.144;37.934;2023-04-25T03:59:46;99894.25;;;12.12;46.74
77869;BME280;67231;59.144;37.934;2023-04-25T04:02:14;99902.75;;;12.16;47.21
77869;BME280;67231;59.144;37.934;2023-04-25T04:04:41;99907.06;;;12.17;47.08
77869;BME280;67231;59.144;37.934;2023-04-25T04:07:10;99898.94;;;12.18;47.58
77869;BME280;67231;59.144;37.934;2023-04-25T04:09:40;99910.06;;;12.22;47.19
77869;BME280;67231;59.144;37.934;2023-04-25T04:12:10;99895.09;;;12.29;47.26
77869;BME280;67231;59.144;37.934;2023-04-25T04:14:38;99898.25;;;12.41;46.54
77869;BME280;67231;59.144;37.934;2023-04-25T04:17:05;99896.41;;;12.50;46.84
77869;BME280;67231;59.144;37.934;2023-04-25T04:19:32;99899.72;;;12.68;46.11
77869;BME280;67231;59.144;37.934;2023-04-25T04:22:05;99893.03;;;12.89;46.09
77869;BME280;67231;59.144;37.934;2023-04-25T04:24:31;99890.66;;;13.02;45.35
77869;BME280;67231;59.144;37.934;2023-04-25T04:27:02;99896.22;;;13.24;45.12
77869;BME280;67231;59.144;37.934;2023-04-25T04:29:33;99896.34;;;13.47;44.46
77869;BME280;67231;59.144;37.934;2023-04-25T04:32:13;99901.75;;;13.62;44.58
77869;BME280;67231;59.144;37.934;2023-04-25T04:34:40;99899.50;;;13.74;44.21
77869;BME280;67231;59.144;37.934;2023-04-25T04:37:07;99901.69;;;14.01;44.09
77869;BME280;67231;59.144;37.934;2023-04-25T04:39:36;99902.56;;;14.78;42.79
77869;BME280;67231;59.144;37.934;2023-04-25T04:42:31;99899.53;;;14.81;42.54
77869;BME280;67231;59.144;37.934;2023-04-25T04:45:07;99896.84;;;14.81;42.28
77869;BME280;67231;59.144;37.934;2023-04-25T04:47:47;99901.00;;;14.84;42.62
77869;BME280;67231;59.144;37.934;2023-04-25T04:50:32;99897.06;;;14.95;42.26
77869;BME280;67231;59.144;37.934;2023-04-25T04:53:24;99897.41;;;15.21;41.73
77869;BME280;67231;59.144;37.934;2023-04-25T04:56:09;99899.13;;;15.44;41.52
77869;BME280;67231;59.144;37.934;2023-04-25T04:58:49;99894.47;;;15.82;40.90
77869;BME280;67231;59.144;37.934;2023-04-25T05:01:26;99892.19;;;16.01;40.39
77869;BME280;67231;59.144;37.934;2023-04-25T05:04:16;99900.03;;;16.02;40.17
77869;BME280;67231;59.144;37.934;2023-04-25T05:06:55;99898.03;;;16.11;39.68
77869;BME280;67231;59.144;37.934;2023-04-25T05:09:31;99898.72;;;16.42;39.73
77869;BME280;67231;59.144;37.934;2023-04-25T05:12:23;99893.53;;;16.62;38.99
77869;BME280;67231;59.144;37.934;2023-04-25T05:14:49;99889.97;;;16.83;38.66
77869;BME280;67231;59.144;37.934;2023-04-25T05:17:50;99900.38;;;16.92;38.84
77869;BME280;67231;59.144;37.934;2023-04-25T05:20:41;99894.59;;;16.89;38.72
77869;BME280;67231;59.144;37.934;2023-04-25T05:23:39;99900.03;;;17.09;38.39
77869;BME280;67231;59.144;37.934;2023-04-25T05:26:33;99899.22;;;17.08;38.04
77869;BME280;67231;59.144;37.934;2023-04-25T05:29:06;99893.31;;;17.20;37.97
77869;BME280;67231;59.144;37.934;2023-04-25T05:31:41;99902.28;;;17.40;37.47
77869;BME280;67231;59.144;37.934;2023-04-25T05:34:10;99905.78;;;17.41;37.53
77869;BME280;67231;59.144;37.934;2023-04-25T05:36:52;99909.66;;;17.32;38.44
77869;BME280;67231;59.144;37.934;2023-04-25T05:39:19;99913.25;;;17.10;37.95
77869;BME280;67231;59.144;37.934;2023-04-25T05:42:04;99912.94;;;16.92;38.45
77869;BME280;67231;59.144;37.934;2023-04-25T05:44:49;99911.50;;;16.96;37.98
77869;BME280;67231;59.144;37.934;2023-04-25T05:47:25;99914.19;;;16.96;37.86
77869;BME280;67231;59.144;37.934;2023-04-25T05:50:15;99910.28;;;16.92;37.80
77869;BME280;67231;59.144;37.934;2023-04-25T05:53:13;99912.97;;;17.34;37.37
77869;BME280;67231;59.144;37.934;2023-04-25T05:55:42;99917.13;;;17.43;37.75
77869;BME280;67231;59.144;37.934;2023-04-25T05:58:27;99918.41;;;17.54;37.32
77869;BME280;67231;59.144;37.934;2023-04-25T06:00:54;99917.03;;;17.71;36.98
77869;BME280;67231;59.144;37.934;2023-04-25T06:03:21;99924.38;;;18.04;37.00
77869;BME280;67231;59.144;37.934;2023-04-25T06:05:48;99915.75;;;18.42;36.22
77869;BME280;67231;59.144;37.934;2023-04-25T06:08:14;99920.06;;;19.17;35.15
77869;BME280;67231;59.144;37.934;2023-04-25T06:10:41;99924.31;;;19.38;35.01
77869;BME280;67231;59.144;37.934;2023-04-25T06:13:07;99921.66;;;19.24;35.23
77869;BME280;67231;59.144;37.934;2023-04-25T06:15:35;99922.53;;;19.11;35.39
77869;BME280;67231;59.144;37.934;2023-04-25T06:18:01;99923.41;;;18.85;35.58
77869;BME280;67231;59.144;37.934;2023-04-25T06:20:28;99932.91;;;18.48;36.01
77869;BME280;67231;59.144;37.934;2023-04-25T06:22:57;99921.13;;;18.15;36.27
77869;BME280;67231;59.144;37.934;2023-04-25T06:25:35;99929.75;;;18.04;36.19
77869;BME280;67231;59.144;37.934;2023-04-25T06:28:02;99927.31;;;18.29;35.95
77869;BME280;67231;59.144;37.934;2023-04-25T06:30:28;99925.66;;;18.35;35.44
77869;BME280;67231;59.144;37.934;2023-04-25T06:33:01;99924.00;;;18.34;35.54
77869;BME280;67231;59.144;37.934;2023-04-25T06:35:29;99919.78;;;19.32;35.44
77869;BME280;67231;59.144;37.934;2023-04-25T06:37:55;99932.16;;;19.46;34.62
77869;BME280;67231;59.144;37.934;2023-04-25T06:40:23;99929.59;;;19.64;34.38
77869;BME280;67231;59.144;37.934;2023-04-25T06:42:49;99932.94;;;19.60;35.12
77869;BME280;67231;59.144;37.934;2023-04-25T06:45:45;99933.84;;;19.34;35.03
77869;BME280;67231;59.144;37.934;2023-04-25T06:48:12;99941.34;;;19.18;35.19
77869;BME280;67231;59.144;37.934;2023-04-25T06:50:38;99940.13;;;19.07;34.86
77869;BME280;67231;59.144;37.934;2023-04-25T06:53:04;99940.78;;;18.96;35.01
77869;BME280;67231;59.144;37.934;2023-04-25T06:55:31;99939.94;;;18.89;34.93
77869;BME280;67231;59.144;37.934;2023-04-25T06:58:07;99948.63;;;18.84;35.22
77869;BME280;67231;59.144;37.934;2023-04-25T07:00:52;99950.47;;;18.77;35.47
77869;BME280;67231;59.144;37.934;2023-04-25T07:03:20;99956.28;;;19.01;35.52
77869;BME280;67231;59.144;37.934;2023-04-25T07:05:47;99949.44;;;18.98;34.85
77869;BME280;67231;59.144;37.934;2023-04-25T07:08:13;99940.47;;;19.38;35.01
77869;BME280;67231;59.144;37.934;2023-04-25T07:10:40;99945.94;;;19.70;34.25
77869;BME280;67231;59.144;37.934;2023-04-25T07:13:06;99956.72;;;20.15;33.99
77869;BME280;67231;59.144;37.934;2023-04-25T07:15:33;99952.19;;;20.91;33.55
77869;BME280;67231;59.144;37.934;2023-04-25T07:18:00;99954.25;;;22.18;32.32
77869;BME280;67231;59.144;37.934;2023-04-25T07:20:26;99963.81;;;23.75;30.10
77869;BME280;67231;59.144;37.934;2023-04-25T07:22:53;99961.41;;;23.61;29.49
77869;BME280;67231;59.144;37.934;2023-04-25T07:25:20;99959.69;;;23.08;30.24
77869;BME280;67231;59.144;37.934;2023-04-25T07:27:46;99956.63;;;24.09;28.98
77869;BME280;67231;59.144;37.934;2023-04-25T07:30:16;99963.25;;;25.32;27.72
77869;BME280;67231;59.144;37.934;2023-04-25T07:32:42;99970.72;;;25.64;27.47
77869;BME280;67231;59.144;37.934;2023-04-25T07:35:09;99986.25;;;27.10;26.19
77869;BME280;67231;59.144;37.934;2023-04-25T07:37:36;99982.69;;;28.41;25.46
77869;BME280;67231;59.144;37.934;2023-04-25T07:40:09;99983.75;;;28.50;24.79
77869;BME280;67231;59.144;37.934;2023-04-25T07:42:37;100001.72;;;27.37;24.82
77869;BME280;67231;59.144;37.934;2023-04-25T07:45:05;100002.44;;;25.02;25.94
77869;BME280;67231;59.144;37.934;2023-04-25T07:47:32;100007.28;;;23.27;27.03
77869;BME280;67231;59.144;37.934;2023-04-25T07:49:58;100008.22;;;21.95;28.15
77869;BME280;67231;59.144;37.934;2023-04-25T07:52:24;99989.19;;;21.09;29.45
77869;BME280;67231;59.144;37.934;2023-04-25T07:54:59;99995.75;;;20.37;30.16
77869;BME280;67231;59.144;37.934;2023-04-25T07:57:34;99991.28;;;19.73;30.91
77869;BME280;67231;59.144;37.934;2023-04-25T08:00:02;99994.28;;;19.24;31.76
77869;BME280;67231;59.144;37.934;2023-04-25T08:02:31;100002.63;;;18.89;32.07
77869;BME280;67231;59.144;37.934;2023-04-25T08:04:58;99989.13;;;18.56;32.49
77869;BME280;67231;59.144;37.934;2023-04-25T08:07:24;99992.38;;;18.25;32.77
77869;BME280;67231;59.144;37.934;2023-04-25T08:09:54;99991.06;;;17.94;33.52
77869;BME280;67231;59.144;37.934;2023-04-25T08:12:32;99994.25;;;17.76;33.63
77869;BME280;67231;59.144;37.934;2023-04-25T08:14:58;99985.75;;;17.65;33.43
77869;BME280;67231;59.144;37.934;2023-04-25T08:17:31;99982.03;;;17.66;34.19
77869;BME280;67231;59.144;37.934;2023-04-25T08:19:57;99981.81;;;17.61;34.17
77869;BME280;67231;59.144;37.934;2023-04-25T08:22:31;99979.94;;;17.55;33.74
77869;BME280;67231;59.144;37.934;2023-04-25T08:25:17;99978.22;;;17.47;33.93
77869;BME280;67231;59.144;37.934;2023-04-25T08:27:44;99979.47;;;17.45;34.02
77869;BME280;67231;59.144;37.934;2023-04-25T08:30:11;99975.72;;;17.39;34.47
77869;BME280;67231;59.144;37.934;2023-04-25T08:32:38;99976.09;;;17.36;34.72
77869;BME280;67231;59.144;37.934;2023-04-25T08:35:24;99973.97;;;17.25;34.49
77869;BME280;67231;59.144;37.934;2023-04-25T08:37:51;99974.91;;;17.39;34.35
77869;BME280;67231;59.144;37.934;2023-04-25T08:40:19;99961.72;;;17.51;34.40
77869;BME280;67231;59.144;37.934;2023-04-25T08:42:56;99968.00;;;17.64;34.71
77869;BME280;67231;59.144;37.934;2023-04-25T08:45:27;99959.44;;;17.89;34.54
77869;BME280;67231;59.144;37.934;2023-04-25T08:47:54;99969.00;;;18.18;34.43
77869;BME280;67231;59.144;37.934;2023-04-25T08:50:23;99955.63;;;18.45;33.83
77869;BME280;67231;59.144;37.934;2023-04-25T08:52:53;99957.28;;;18.73;33.48
77869;BME280;67231;59.144;37.934;2023-04-25T08:55:21;99952.13;;;19.05;32.54
77869;BME280;67231;59.144;37.934;2023-04-25T08:57:50;99947.69;;;19.44;31.87
77869;BME280;67231;59.144;37.934;2023-04-25T09:00:18;99949.75;;;20.00;31.70
77869;BME280;67231;59.144;37.934;2023-04-25T09:02:46;99951.06;;;20.23;30.74
77869;BME280;67231;59.144;37.934;2023-04-25T09:05:14;99952.75;;;20.17;30.29
77869;BME280;67231;59.144;37.934;2023-04-25T09:07:40;99951.50;;;20.20;30.34
77869;BME280;67231;59.144;37.934;2023-04-25T09:10:07;99955.44;;;20.17;30.14
77869;BME280;67231;59.144;37.934;2023-04-25T09:12:37;99955.00;;;20.20;30.41
77869;BME280;67231;59.144;37.934;2023-04-25T09:15:10;99957.56;;;20.09;30.29
77869;BME280;67231;59.144;37.934;2023-04-25T09:18:02;99953.72;;;19.91;30.70
77869;BME280;67231;59.144;37.934;2023-04-25T09:20:42;99953.94;;;19.90;31.09
77869;BME280;67231;59.144;37.934;2023-04-25T09:23:12;99950.38;;;19.96;30.67
77869;BME280;67231;59.144;37.934;2023-04-25T09:25:38;99954.78;;;19.83;30.99
77869;BME280;67231;59.144;37.934;2023-04-25T09:28:11;99948.78;;;19.88;31.23
77869;BME280;67231;59.144;37.934;2023-04-25T09:30:37;99954.78;;;20.22;30.94
77869;BME280;67231;59.144;37.934;2023-04-25T09:33:31;99946.53;;;20.49;30.98
77869;BME280;67231;59.144;37.934;2023-04-25T09:38:56;99947.03;;;20.89;30.38
77869;BME280;67231;59.144;37.934;2023-04-25T09:41:29;99952.88;;;20.86;30.52
77869;BME280;67231;59.144;37.934;2023-04-25T09:43:59;99947.91;;;20.83;30.22
77869;BME280;67231;59.144;37.934;2023-04-25T09:46:34;99952.03;;;20.86;30.55
77869;BME280;67231;59.144;37.934;2023-04-25T09:49:07;99957.72;;;20.78;31.36
77869;BME280;67231;59.144;37.934;2023-04-25T09:51:53;99951.41;;;20.59;31.61
77869;BME280;67231;59.144;37.934;2023-04-25T09:54:21;99958.06;;;20.56;31.07
77869;BME280;67231;59.144;37.934;2023-04-25T09:56:52;99960.97;;;20.54;31.24
77869;BME280;67231;59.144;37.934;2023-04-25T09:59:21;99973.91;;;20.46;31.47
77869;BME280;67231;59.144;37.934;2023-04-25T10:01:52;99961.22;;;20.21;31.98
77869;BME280;67231;59.144;37.934;2023-04-25T10:04:32;99976.25;;;20.04;32.63
77869;BME280;67231;59.144;37.934;2023-04-25T10:07:19;99976.38;;;19.77;32.55
77869;BME280;67231;59.144;37.934;2023-04-25T10:09:58;99988.41;;;19.61;33.17
77869;BME280;67231;59.144;37.934;2023-04-25T10:12:26;99980.75;;;19.58;33.33
77869;BME280;67231;59.144;37.934;2023-04-25T10:14:54;99980.31;;;19.68;33.26
77869;BME280;67231;59.144;37.934;2023-04-25T10:17:21;99990.56;;;19.97;32.90
77869;BME280;67231;59.144;37.934;2023-04-25T10:19:47;99984.44;;;20.22;32.98
77869;BME280;67231;59.144;37.934;2023-04-25T10:22:31;99976.50;;;20.27;32.75
77869;BME280;67231;59.144;37.934;2023-04-25T10:24:58;99979.03;;;20.22;32.69
77869;BME280;67231;59.144;37.934;2023-04-25T10:27:27;99984.00;;;20.25;32.64
77869;BME280;67231;59.144;37.934;2023-04-25T10:30:04;99982.78;;;20.21;32.45
77869;BME280;67231;59.144;37.934;2023-04-25T10:32:33;99978.59;;;20.25;32.73
77869;BME280;67231;59.144;37.934;2023-04-25T10:35:16;99981.91;;;20.27;33.16
77869;BME280;67231;59.144;37.934;2023-04-25T10:40:29;99990.72;;;20.41;32.79
77869;BME280;67231;59.144;37.934;2023-04-25T10:45:59;99969.75;;;20.50;32.49
77869;BME280;67231;59.144;37.934;2023-04-25T10:51:08;99978.34;;;20.33;32.20
77869;BME280;67231;59.144;37.934;2023-04-25T10:53:35;99979.19;;;20.27;32.44
77869;BME280;67231;59.144;37.934;2023-04-25T10:56:18;99973.09;;;20.45;32.62
77869;BME280;67231;59.144;37.934;2023-04-25T10:58:45;99983.38;;;20.55;32.25
77869;BME280;67231;59.144;37.934;2023-04-25T11:01:13;99970.25;;;20.33;32.52
77869;BME280;67231;59.144;37.934;2023-04-25T11:03:41;99978.16;;;20.28;32.31
77869;BME280;67231;59.144;37.934;2023-04-25T11:06:41;99978.78;;;19.98;32.75
77869;BME280;67231;59.144;37.934;2023-04-25T11:09:12;99971.00;;;19.77;33.06
77869;BME280;67231;59.144;37.934;2023-04-25T11:11:39;99966.47;;;19.57;33.02
77869;BME280;67231;59.144;37.934;2023-04-25T11:14:06;99972.75;;;19.44;33.55
77869;BME280;67231;59.144;37.934;2023-04-25T11:16:32;99971.06;;;19.43;33.37
77869;BME280;67231;59.144;37.934;2023-04-25T11:18:58;99964.88;;;19.43;33.33
77869;BME280;67231;59.144;37.934;2023-04-25T11:21:25;99966.13;;;19.34;33.58
77869;BME280;67231;59.144;37.934;2023-04-25T11:23:56;99968.63;;;19.28;33.89
77869;BME280;67231;59.144;37.934;2023-04-25T11:26:24;99964.09;;;19.22;33.56
77869;BME280;67231;59.144;37.934;2023-04-25T11:28:50;99964.09;;;19.22;33.67
77869;BME280;67231;59.144;37.934;2023-04-25T11:31:20;99956.25;;;19.14;33.60
77869;BME280;67231;59.144;37.934;2023-04-25T11:33:47;99965.75;;;19.10;33.61
77869;BME280;67231;59.144;37.934;2023-04-25T11:36:13;99957.94;;;19.08;33.49
77869;BME280;67231;59.144;37.934;2023-04-25T11:38:39;99961.66;;;19.07;33.68
77869;BME280;67231;59.144;37.934;2023-04-25T11:41:07;99960.84;;;19.07;33.58
77869;BME280;67231;59.144;37.934;2023-04-25T11:43:33;99957.28;;;19.13;33.89
77869;BME280;67231;59.144;37.934;2023-04-25T11:45:59;99952.50;;;19.28;33.33
77869;BME280;67231;59.144;37.934;2023-04-25T11:48:25;99944.59;;;19.47;33.14
77869;BME280;67231;59.144;37.934;2023-04-25T11:50:53;99935.84;;;19.58;33.16
77869;BME280;67231;59.144;37.934;2023-04-25T11:53:19;99938.69;;;19.70;32.90
77869;BME280;67231;59.144;37.934;2023-04-25T11:55:46;99934.31;;;19.76;32.46
77869;BME280;67231;59.144;37.934;2023-04-25T11:58:13;99926.63;;;19.86;32.70
77869;BME280;67231;59.144;37.934;2023-04-25T12:00:42;99924.22;;;20.03;32.02
77869;BME280;67231;59.144;37.934;2023-04-25T12:03:09;99926.91;;;20.10;31.58
77869;BME280;67231;59.144;37.934;2023-04-25T12:05:35;99924.00;;;20.05;31.43
77869;BME280;67231;59.144;37.934;2023-04-25T12:08:13;99915.38;;;19.96;31.62
77869;BME280;67231;59.144;37.934;2023-04-25T12:10:45;99913.97;;;19.87;31.38
77869;BME280;67231;59.144;37.934;2023-04-25T12:13:22;99916.09;;;19.78;31.52
77869;BME280;67231;59.144;37.934;2023-04-25T12:15:49;99910.72;;;19.71;31.45
77869;BME280;67231;59.144;37.934;2023-04-25T12:18:19;99914.28;;;19.65;31.56
77869;BME280;67231;59.144;37.934;2023-04-25T12:20:46;99915.13;;;19.59;31.85
77869;BME280;67231;59.144;37.934;2023-04-25T12:23:13;99906.03;;;19.53;31.88
77869;BME280;67231;59.144;37.934;2023-04-25T12:25:43;99898.84;;;19.47;31.67
77869;BME280;67231;59.144;37.934;2023-04-25T12:28:17;99896.38;;;19.32;31.97
77869;BME280;67231;59.144;37.934;2023-04-25T12:31:05;99894.97;;;19.29;32.19
77869;BME280;67231;59.144;37.934;2023-04-25T12:33:33;99900.72;;;19.40;31.86
77869;BME280;67231;59.144;37.934;2023-04-25T12:36:01;99897.19;;;19.46;31.58
77869;BME280;67231;59.144;37.934;2023-04-25T12:38:39;99886.59;;;19.51;31.48
77869;BME280;67231;59.144;37.934;2023-04-25T12:41:06;99880.75;;;19.61;31.31
77869;BME280;67231;59.144;37.934;2023-04-25T12:43:33;99881.50;;;19.75;31.69
77869;BME280;67231;59.144;37.934;2023-04-25T12:45:59;99877.34;;;19.79;31.29
77869;BME280;67231;59.144;37.934;2023-04-25T12:48:26;99868.25;;;19.80;30.51
77869;BME280;67231;59.144;37.934;2023-04-25T12:50:52;99866.56;;;19.86;30.46
77869;BME280;67231;59.144;37.934;2023-04-25T12:53:21;99867.59;;;19.85;30.69
77869;BME280;67231;59.144;37.934;2023-04-25T12:55:47;99859.97;;;19.75;30.42
77869;BME280;67231;59.144;37.934;2023-04-25T12:58:15;99861.84;;;19.68;30.64
77869;BME280;67231;59.144;37.934;2023-04-25T13:00:42;99867.91;;;19.56;30.27
77869;BME280;67231;59.144;37.934;2023-04-25T13:03:09;99848.56;;;19.41;30.50
77869;BME280;67231;59.144;37.934;2023-04-25T13:05:37;99848.13;;;19.44;30.91
77869;BME280;67231;59.144;37.934;2023-04-25T13:08:04;99850.59;;;19.45;30.72
77869;BME280;67231;59.144;37.934;2023-04-25T13:10:31;99841.09;;;19.43;30.97
77869;BME280;67231;59.144;37.934;2023-04-25T13:12:59;99841.31;;;19.41;30.86
77869;BME280;67231;59.144;37.934;2023-04-25T13:15:27;99837.16;;;19.39;30.82
77869;BME280;67231;59.144;37.934;2023-04-25T13:17:53;99841.72;;;19.38;31.03